sensor_id;sensor_type;location;lat;lon;timestamp;pressure;altitude;pressure_sealevel;temperature;humidity
23166;BME280;11751;42.700;24.170;2023-09-08T00:02:07;94532.56;;;17.48;nan
23166;BME280;11751;42.700;24.170;2023-09-08T00:04:34;94528.94;;;17.38;nan
23166;BME280;11751;42.700;24.170;2023-09-08T00:07:00;94542.81;;;17.44;nan
23166;BME280;11751;42.700;24.170;2023-09-08T00:09:25;94542.09;;;17.08;nan
23166;BME280;11751;42.700;24.170;2023-09-08T00:11:51;94544.78;;;17.15;nan
23166;BME280;11751;42.700;24.170;2023-09-08T00:14:17;94547.66;;;17.24;nan
23166;BME280;11751;42.700;24.170;2023-09-08T00:16:43;94545.31;;;17.30;nan
23166;BME280;11751;42.700;24.170;2023-09-08T00:19:09;94545.47;;;17.32;nan
23166;BME280;11751;42.700;24.170;2023-09-08T00:21:36;94545.31;;;17.30;nan
23166;BME280;11751;42.700;24.170;2023-09-08T00:24:02;94548.75;;;17.29;nan
23166;BME280;11751;42.700;24.170;2023-09-08T00:26:29;94545.53;;;17.15;nan
23166;BME280;11751;42.700;24.170;2023-09-08T00:28:54;94545.69;;;17.17;nan
23166;BME280;11751;42.700;24.170;2023-09-08T00:31:20;94546.88;;;17.14;nan
23166;BME280;11751;42.700;24.170;2023-09-08T00:33:45;94542.72;;;17.15;nan
23166;BME280;11751;42.700;24.170;2023-09-08T00:36:10;94540.88;;;17.11;nan
23166;BME280;11751;42.700;24.170;2023-09-08T00:38:39;94543.72;;;17.11;nan
23166;BME280;11751;42.700;24.170;2023-09-08T00:41:05;94548.94;;;17.14;nan
23166;BME280;11751;42.700;24.170;2023-09-08T00:43:30;94549.38;;;17.11;nan
23166;BME280;11751;42.700;24.170;2023-09-08T00:45:56;94549.19;;;16.99;nan
23166;BME280;11751;42.700;24.170;2023-09-08T00:48:24;94553.25;;;17.06;nan
23166;BME280;11751;42.700;24.170;2023-09-08T00:50:50;94546.94;;;16.98;nan
23166;BME280;11751;42.700;24.170;2023-09-08T00:53:16;94544.13;;;16.98;nan
23166;BME280;11751;42.700;24.170;2023-09-08T00:55:42;94540.97;;;16.94;nan
23166;BME280;11751;42.700;24.170;2023-09-08T00:58:07;94539.47;;;16.93;nan
23166;BME280;11751;42.700;24.170;2023-09-08T01:00:33;94539.72;;;16.78;nan
23166;BME280;11751;42.700;24.170;2023-09-08T01:02:59;94533.72;;;16.74;nan
23166;BME280;11751;42.700;24.170;2023-09-08T01:05:25;94541.59;;;16.75;nan
23166;BME280;11751;42.700;24.170;2023-09-08T01:07:51;94537.88;;;16.73;nan
23166;BME280;11751;42.700;24.170;2023-09-08T01:10:17;94524.28;;;16.62;nan
23166;BME280;11751;42.700;24.170;2023-09-08T01:12:43;94524.22;;;16.52;nan
23166;BME280;11751;42.700;24.170;2023-09-08T01:15:08;94525.22;;;16.47;nan
23166;BME280;11751;42.700;24.170;2023-09-08T01:17:34;94527.75;;;16.43;nan
23166;BME280;11751;42.700;24.170;2023-09-08T01:20:17;94521.66;;;16.47;nan
23166;BME280;11751;42.700;24.170;2023-09-08T01:25:44;94514.13;;;16.32;nan
23166;BME280;11751;42.700;24.170;2023-09-08T01:28:12;94514.44;;;16.36;nan
23166;BME280;11751;42.700;24.170;2023-09-08T01:30:38;94521.94;;;16.25;nan
23166;BME280;11751;42.700;24.170;2023-09-08T01:33:04;94515.84;;;16.28;nan
23166;BME280;11751;42.700;24.170;2023-09-08T01:35:30;94516.97;;;16.32;nan
23166;BME280;11751;42.700;24.170;2023-09-08T01:37:55;94515.53;;;16.24;nan
23166;BME280;11751;42.700;24.170;2023-09-08T01:40:21;94511.72;;;16.12;nan
23166;BME280;11751;42.700;24.170;2023-09-08T01:42:47;94510.06;;;16.09;nan
23166;BME280;11751;42.700;24.170;2023-09-08T01:45:13;94510.50;;;15.89;nan
23166;BME280;11751;42.700;24.170;2023-09-08T01:47:38;94507.91;;;15.66;nan
23166;BME280;11751;42.700;24.170;2023-09-08T01:50:04;94502.19;;;15.74;nan
23166;BME280;11751;42.700;24.170;2023-09-08T01:52:29;94499.44;;;15.83;nan
23166;BME280;11751;42.700;24.170;2023-09-08T01:54:55;94503.69;;;15.75;nan
23166;BME280;11751;42.700;24.170;2023-09-08T01:57:20;94505.09;;;15.83;nan
23166;BME280;11751;42.700;24.170;2023-09-08T01:59:46;94507.66;;;15.89;nan
23166;BME280;11751;42.700;24.170;2023-09-08T02:02:11;94497.44;;;15.93;nan
23166;BME280;11751;42.700;24.170;2023-09-08T02:04:37;94494.78;;;15.95;nan
23166;BME280;11751;42.700;24.170;2023-09-08T02:07:03;94501.75;;;15.94;nan
23166;BME280;11751;42.700;24.170;2023-09-08T02:09:34;94490.28;;;15.92;nan
23166;BME280;11751;42.700;24.170;2023-09-08T02:12:00;94486.66;;;15.82;nan
23166;BME280;11751;42.700;24.170;2023-09-08T02:14:25;94485.69;;;15.70;nan
23166;BME280;11751;42.700;24.170;2023-09-08T02:16:51;94494.22;;;15.46;nan
23166;BME280;11751;42.700;24.170;2023-09-08T02:19:16;94494.13;;;15.53;nan
23166;BME280;11751;42.700;24.170;2023-09-08T02:21:42;94490.16;;;15.56;nan
23166;BME280;11751;42.700;24.170;2023-09-08T02:24:07;94494.13;;;15.53;nan
23166;BME280;11751;42.700;24.170;2023-09-08T02:26:33;94480.09;;;15.46;nan
23166;BME280;11751;42.700;24.170;2023-09-08T02:28:59;94488.66;;;15.39;nan
23166;BME280;11751;42.700;24.170;2023-09-08T02:31:26;94479.59;;;15.40;nan
23166;BME280;11751;42.700;24.170;2023-09-08T02:33:51;94484.66;;;15.42;nan
23166;BME280;11751;42.700;24.170;2023-09-08T02:36:17;94487.16;;;15.38;nan
23166;BME280;11751;42.700;24.170;2023-09-08T02:38:42;94487.22;;;15.47;nan
23166;BME280;11751;42.700;24.170;2023-09-08T02:41:07;94496.81;;;15.51;nan
23166;BME280;11751;42.700;24.170;2023-09-08T02:43:33;94489.13;;;15.28;nan
23166;BME280;11751;42.700;24.170;2023-09-08T02:45:58;94486.16;;;15.18;nan
23166;BME280;11751;42.700;24.170;2023-09-08T02:48:24;94489.16;;;15.20;nan
23166;BME280;11751;42.700;24.170;2023-09-08T02:50:50;94483.56;;;15.13;nan
23166;BME280;11751;42.700;24.170;2023-09-08T02:53:15;94483.75;;;15.15;nan
23166;BME280;11751;42.700;24.170;2023-09-08T02:55:40;94482.84;;;15.12;nan
23166;BME280;11751;42.700;24.170;2023-09-08T02:58:06;94484.94;;;15.12;nan
23166;BME280;11751;42.700;24.170;2023-09-08T03:00:31;94479.44;;;15.14;nan
23166;BME280;11751;42.700;24.170;2023-09-08T03:02:56;94485.06;;;15.14;nan
23166;BME280;11751;42.700;24.170;2023-09-08T03:05:22;94475.38;;;15.07;nan
23166;BME280;11751;42.700;24.170;2023-09-08T03:07:48;94476.06;;;15.15;nan
23166;BME280;11751;42.700;24.170;2023-09-08T03:10:14;94472.28;;;15.13;nan
23166;BME280;11751;42.700;24.170;2023-09-08T03:12:39;94474.16;;;15.18;nan
23166;BME280;11751;42.700;24.170;2023-09-08T03:15:05;94473.56;;;15.19;nan
23166;BME280;11751;42.700;24.170;2023-09-08T03:17:31;94465.06;;;15.27;nan
23166;BME280;11751;42.700;24.170;2023-09-08T03:19:56;94465.81;;;15.27;nan
23166;BME280;11751;42.700;24.170;2023-09-08T03:22:22;94480.41;;;15.33;nan
23166;BME280;11751;42.700;24.170;2023-09-08T03:24:48;94469.88;;;15.34;nan
23166;BME280;11751;42.700;24.170;2023-09-08T03:27:13;94471.72;;;15.39;nan
23166;BME280;11751;42.700;24.170;2023-09-08T03:29:39;94477.78;;;15.35;nan
23166;BME280;11751;42.700;24.170;2023-09-08T03:32:04;94474.72;;;15.41;nan
23166;BME280;11751;42.700;24.170;2023-09-08T03:34:30;94470.56;;;15.42;nan
23166;BME280;11751;42.700;24.170;2023-09-08T03:36:56;94472.53;;;15.32;nan
23166;BME280;11751;42.700;24.170;2023-09-08T03:39:21;94480.13;;;15.22;nan
23166;BME280;11751;42.700;24.170;2023-09-08T03:41:46;94476.81;;;14.91;nan
23166;BME280;11751;42.700;24.170;2023-09-08T03:44:12;94470.47;;;15.08;nan
23166;BME280;11751;42.700;24.170;2023-09-08T03:46:37;94467.47;;;15.06;nan
23166;BME280;11751;42.700;24.170;2023-09-08T03:49:03;94471.63;;;15.05;nan
23166;BME280;11751;42.700;24.170;2023-09-08T03:51:28;94468.13;;;14.97;nan
23166;BME280;11751;42.700;24.170;2023-09-08T03:53:54;94457.50;;;15.05;nan
23166;BME280;11751;42.700;24.170;2023-09-08T03:56:19;94479.59;;;14.99;nan
23166;BME280;11751;42.700;24.170;2023-09-08T03:58:47;94472.72;;;15.09;nan
23166;BME280;11751;42.700;24.170;2023-09-08T04:01:13;94478.19;;;15.07;nan
23166;BME280;11751;42.700;24.170;2023-09-08T04:03:38;94471.97;;;15.09;nan
23166;BME280;11751;42.700;24.170;2023-09-08T04:06:04;94484.06;;;15.02;nan
23166;BME280;11751;42.700;24.170;2023-09-08T04:08:29;94476.25;;;14.93;nan
23166;BME280;11751;42.700;24.170;2023-09-08T04:10:54;94466.31;;;14.92;nan
23166;BME280;11751;42.700;24.170;2023-09-08T04:13:20;94483.09;;;14.82;nan
23166;BME280;11751;42.700;24.170;2023-09-08T04:15:45;94479.59;;;14.50;nan
23166;BME280;11751;42.700;24.170;2023-09-08T04:18:10;94480.69;;;14.54;nan
23166;BME280;11751;42.700;24.170;2023-09-08T04:20:36;94474.19;;;14.69;nan
23166;BME280;11751;42.700;24.170;2023-09-08T04:23:01;94479.47;;;14.65;nan
23166;BME280;11751;42.700;24.170;2023-09-08T04:25:27;94477.00;;;14.69;nan
23166;BME280;11751;42.700;24.170;2023-09-08T04:27:52;94490.28;;;14.76;nan
23166;BME280;11751;42.700;24.170;2023-09-08T04:30:18;94481.03;;;14.83;nan
23166;BME280;11751;42.700;24.170;2023-09-08T04:32:43;94494.19;;;14.80;nan
23166;BME280;11751;42.700;24.170;2023-09-08T04:35:09;94492.69;;;15.04;nan
23166;BME280;11751;42.700;24.170;2023-09-08T04:37:35;94490.19;;;14.91;nan
23166;BME280;11751;42.700;24.170;2023-09-08T04:40:02;94496.50;;;14.99;nan
23166;BME280;11751;42.700;24.170;2023-09-08T04:42:28;94489.56;;;15.17;nan
23166;BME280;11751;42.700;24.170;2023-09-08T04:44:54;94494.47;;;15.16;nan
23166;BME280;11751;42.700;24.170;2023-09-08T04:47:19;94495.13;;;15.32;nan
23166;BME280;11751;42.700;24.170;2023-09-08T04:49:45;94480.94;;;15.15;nan
23166;BME280;11751;42.700;24.170;2023-09-08T04:52:11;94489.75;;;15.19;nan
23166;BME280;11751;42.700;24.170;2023-09-08T04:54:36;94491.78;;;15.26;nan
23166;BME280;11751;42.700;24.170;2023-09-08T04:57:02;94489.38;;;15.39;nan
23166;BME280;11751;42.700;24.170;2023-09-08T04:59:28;94488.16;;;15.49;nan
23166;BME280;11751;42.700;24.170;2023-09-08T05:01:53;94486.84;;;15.67;nan
23166;BME280;11751;42.700;24.170;2023-09-08T05:04:19;94487.16;;;15.71;nan
23166;BME280;11751;42.700;24.170;2023-09-08T05:06:44;94496.44;;;15.81;nan
23166;BME280;11751;42.700;24.170;2023-09-08T05:09:10;94501.28;;;15.88;nan
23166;BME280;11751;42.700;24.170;2023-09-08T05:11:35;94490.81;;;15.98;nan
23166;BME280;11751;42.700;24.170;2023-09-08T05:14:02;94494.44;;;16.08;nan
23166;BME280;11751;42.700;24.170;2023-09-08T05:16:27;94492.19;;;16.24;nan
23166;BME280;11751;42.700;24.170;2023-09-08T05:19:04;94490.25;;;16.43;nan
23166;BME280;11751;42.700;24.170;2023-09-08T05:21:31;94484.41;;;16.67;nan
23166;BME280;11751;42.700;24.170;2023-09-08T05:23:57;94476.13;;;17.14;nan
23166;BME280;11751;42.700;24.170;2023-09-08T05:26:22;94480.25;;;17.49;nan
23166;BME280;11751;42.700;24.170;2023-09-08T05:28:48;94487.59;;;17.90;nan
23166;BME280;11751;42.700;24.170;2023-09-08T05:31:13;94491.34;;;18.30;nan
23166;BME280;11751;42.700;24.170;2023-09-08T05:33:39;94485.78;;;18.61;nan
23166;BME280;11751;42.700;24.170;2023-09-08T05:36:04;94483.34;;;18.67;nan
23166;BME280;11751;42.700;24.170;2023-09-08T05:38:30;94497.56;;;19.06;nan
23166;BME280;11751;42.700;24.170;2023-09-08T05:40:55;94498.81;;;19.34;nan
23166;BME280;11751;42.700;24.170;2023-09-08T05:43:24;94488.38;;;19.57;nan
23166;BME280;11751;42.700;24.170;2023-09-08T05:45:50;94494.69;;;19.77;nan
23166;BME280;11751;42.700;24.170;2023-09-08T05:48:16;94495.59;;;20.00;nan
23166;BME280;11751;42.700;24.170;2023-09-08T05:50:42;94492.59;;;20.19;nan
23166;BME280;11751;42.700;24.170;2023-09-08T05:53:07;94495.41;;;20.40;nan
23166;BME280;11751;42.700;24.170;2023-09-08T05:55:32;94494.31;;;20.45;nan
23166;BME280;11751;42.700;24.170;2023-09-08T05:57:58;94481.50;;;20.66;nan
23166;BME280;11751;42.700;24.170;2023-09-08T06:00:23;94482.69;;;20.84;nan
23166;BME280;11751;42.700;24.170;2023-09-08T06:02:48;94489.53;;;21.02;nan
23166;BME280;11751;42.700;24.170;2023-09-08T06:05:14;94481.38;;;21.08;nan
23166;BME280;11751;42.700;24.170;2023-09-08T06:07:39;94486.44;;;21.10;nan
23166;BME280;11751;42.700;24.170;2023-09-08T06:10:05;94487.31;;;21.12;nan
23166;BME280;11751;42.700;24.170;2023-09-08T06:12:31;94476.41;;;21.20;nan
23166;BME280;11751;42.700;24.170;2023-09-08T06:14:56;94481.50;;;21.33;nan
23166;BME280;11751;42.700;24.170;2023-09-08T06:17:21;94477.66;;;21.40;nan
23166;BME280;11751;42.700;24.170;2023-09-08T06:19:47;94473.94;;;21.49;nan
23166;BME280;11751;42.700;24.170;2023-09-08T06:22:12;94471.97;;;21.63;nan
23166;BME280;11751;42.700;24.170;2023-09-08T06:24:38;94479.41;;;21.79;nan
23166;BME280;11751;42.700;24.170;2023-09-08T06:27:03;94472.56;;;21.84;nan
23166;BME280;11751;42.700;24.170;2023-09-08T06:29:29;94481.19;;;21.98;nan
23166;BME280;11751;42.700;24.170;2023-09-08T06:31:54;94469.41;;;22.15;nan
23166;BME280;11751;42.700;24.170;2023-09-08T06:34:20;94474.31;;;22.26;nan
23166;BME280;11751;42.700;24.170;2023-09-08T06:36:48;94469.09;;;22.34;nan
23166;BME280;11751;42.700;24.170;2023-09-08T06:39:14;94475.72;;;22.49;nan
23166;BME280;11751;42.700;24.170;2023-09-08T06:41:39;94483.38;;;22.58;nan
23166;BME280;11751;42.700;24.170;2023-09-08T06:44:05;94481.88;;;22.57;nan
23166;BME280;11751;42.700;24.170;2023-09-08T06:46:30;94490.47;;;22.82;nan
23166;BME280;11751;42.700;24.170;2023-09-08T06:48:56;94480.16;;;23.02;nan
23166;BME280;11751;42.700;24.170;2023-09-08T06:51:21;94467.44;;;23.17;nan
23166;BME280;11751;42.700;24.170;2023-09-08T06:53:57;94481.75;;;23.43;nan
23166;BME280;11751;42.700;24.170;2023-09-08T06:56:23;94479.72;;;23.46;nan
23166;BME280;11751;42.700;24.170;2023-09-08T06:58:48;94486.88;;;23.58;nan
23166;BME280;11751;42.700;24.170;2023-09-08T07:01:14;94487.41;;;23.68;nan
23166;BME280;11751;42.700;24.170;2023-09-08T07:03:40;94485.59;;;23.75;nan
23166;BME280;11751;42.700;24.170;2023-09-08T07:06:06;94493.75;;;23.94;nan
23166;BME280;11751;42.700;24.170;2023-09-08T07:08:31;94486.03;;;24.10;nan
23166;BME280;11751;42.700;24.170;2023-09-08T07:10:56;94485.56;;;24.28;nan
23166;BME280;11751;42.700;24.170;2023-09-08T07:13:22;94480.78;;;24.33;nan
23166;BME280;11751;42.700;24.170;2023-09-08T07:15:47;94480.25;;;24.36;nan
23166;BME280;11751;42.700;24.170;2023-09-08T07:18:13;94482.66;;;24.55;nan
23166;BME280;11751;42.700;24.170;2023-09-08T07:20:38;94481.00;;;24.79;nan
23166;BME280;11751;42.700;24.170;2023-09-08T07:23:04;94485.72;;;24.88;nan
23166;BME280;11751;42.700;24.170;2023-09-08T07:25:29;94487.97;;;25.05;nan
23166;BME280;11751;42.700;24.170;2023-09-08T07:27:54;94486.59;;;25.06;nan
23166;BME280;11751;42.700;24.170;2023-09-08T07:30:20;94494.41;;;25.19;nan
23166;BME280;11751;42.700;24.170;2023-09-08T07:32:46;94480.16;;;25.21;nan
23166;BME280;11751;42.700;24.170;2023-09-08T07:35:11;94496.38;;;25.30;nan
23166;BME280;11751;42.700;24.170;2023-09-08T07:37:42;94480.00;;;25.17;nan
23166;BME280;11751;42.700;24.170;2023-09-08T07:40:09;94483.13;;;25.23;nan
23166;BME280;11751;42.700;24.170;2023-09-08T07:42:35;94482.03;;;25.61;nan
23166;BME280;11751;42.700;24.170;2023-09-08T07:45:00;94489.63;;;25.85;nan
23166;BME280;11751;42.700;24.170;2023-09-08T07:47:26;94474.28;;;25.94;nan
23166;BME280;11751;42.700;24.170;2023-09-08T07:49:51;94486.69;;;25.83;nan
23166;BME280;11751;42.700;24.170;2023-09-08T07:52:17;94475.47;;;25.74;nan
23166;BME280;11751;42.700;24.170;2023-09-08T07:54:42;94491.69;;;25.83;nan
23166;BME280;11751;42.700;24.170;2023-09-08T07:57:08;94488.66;;;26.11;nan
23166;BME280;11751;42.700;24.170;2023-09-08T07:59:33;94484.41;;;26.12;nan
23166;BME280;11751;42.700;24.170;2023-09-08T08:01:59;94484.59;;;26.16;nan
23166;BME280;11751;42.700;24.170;2023-09-08T08:04:24;94476.66;;;26.32;nan
23166;BME280;11751;42.700;24.170;2023-09-08T08:06:49;94482.59;;;26.36;nan
23166;BME280;11751;42.700;24.170;2023-09-08T08:09:15;94489.53;;;26.31;nan
23166;BME280;11751;42.700;24.170;2023-09-08T08:11:40;94484.75;;;26.20;nan
23166;BME280;11751;42.700;24.170;2023-09-08T08:14:06;94477.13;;;26.42;nan
23166;BME280;11751;42.700;24.170;2023-09-08T08:16:32;94479.47;;;25.82;nan
23166;BME280;11751;42.700;24.170;2023-09-08T08:18:57;94494.63;;;26.00;nan
23166;BME280;11751;42.700;24.170;2023-09-08T08:21:24;94487.16;;;25.78;nan
23166;BME280;11751;42.700;24.170;2023-09-08T08:23:50;94486.47;;;25.48;nan
23166;BME280;11751;42.700;24.170;2023-09-08T08:26:16;94488.63;;;25.48;nan
23166;BME280;11751;42.700;24.170;2023-09-08T08:28:43;94490.28;;;25.53;nan
23166;BME280;11751;42.700;24.170;2023-09-08T08:31:08;94489.09;;;25.58;nan
23166;BME280;11751;42.700;24.170;2023-09-08T08:33:34;94481.19;;;25.74;nan
23166;BME280;11751;42.700;24.170;2023-09-08T08:35:59;94481.31;;;25.76;nan
23166;BME280;11751;42.700;24.170;2023-09-08T08:38:25;94477.63;;;25.58;nan
23166;BME280;11751;42.700;24.170;2023-09-08T08:40:50;94479.09;;;25.59;nan
23166;BME280;11751;42.700;24.170;2023-09-08T08:43:16;94475.19;;;25.37;nan
23166;BME280;11751;42.700;24.170;2023-09-08T08:45:42;94484.28;;;25.78;nan
23166;BME280;11751;42.700;24.170;2023-09-08T08:48:08;94472.41;;;25.85;nan
23166;BME280;11751;42.700;24.170;2023-09-08T08:50:35;94474.84;;;25.60;nan
23166;BME280;11751;42.700;24.170;2023-09-08T08:53:01;94468.53;;;25.63;nan
23166;BME280;11751;42.700;24.170;2023-09-08T08:55:29;94477.06;;;25.77;nan
23166;BME280;11751;42.700;24.170;2023-09-08T08:58:01;94475.75;;;25.80;nan
23166;BME280;11751;42.700;24.170;2023-09-08T09:00:28;94471.69;;;25.85;nan
23166;BME280;11751;42.700;24.170;2023-09-08T09:02:54;94477.69;;;25.75;nan
23166;BME280;11751;42.700;24.170;2023-09-08T09:05:21;94478.69;;;25.51;nan
23166;BME280;11751;42.700;24.170;2023-09-08T09:07:47;94475.44;;;25.12;nan
23166;BME280;11751;42.700;24.170;2023-09-08T09:10:13;94483.59;;;25.17;nan
23166;BME280;11751;42.700;24.170;2023-09-08T09:12:39;94470.75;;;25.34;nan
23166;BME280;11751;42.700;24.170;2023-09-08T09:15:05;94464.66;;;25.72;nan
23166;BME280;11751;42.700;24.170;2023-09-08T09:17:34;94472.97;;;25.66;nan
23166;BME280;11751;42.700;24.170;2023-09-08T09:20:17;94478.34;;;25.58;nan
23166;BME280;11751;42.700;24.170;2023-09-08T09:22:45;94468.81;;;25.54;nan
23166;BME280;11751;42.700;24.170;2023-09-08T09:27:56;94468.53;;;25.48;nan
23166;BME280;11751;42.700;24.170;2023-09-08T09:30:23;94477.78;;;25.31;nan
23166;BME280;11751;42.700;24.170;2023-09-08T09:35:48;94474.09;;;25.59;nan
23166;BME280;11751;42.700;24.170;2023-09-08T09:38:17;94472.16;;;25.79;nan
23166;BME280;11751;42.700;24.170;2023-09-08T09:40:45;94463.94;;;26.20;nan
23166;BME280;11751;42.700;24.170;2023-09-08T09:43:11;94458.06;;;26.33;nan
23166;BME280;11751;42.700;24.170;2023-09-08T09:45:37;94465.72;;;26.44;nan
23166;BME280;11751;42.700;24.170;2023-09-08T09:48:04;94457.44;;;26.52;nan
23166;BME280;11751;42.700;24.170;2023-09-08T09:50:32;94469.78;;;26.39;nan
23166;BME280;11751;42.700;24.170;2023-09-08T09:53:07;94462.13;;;26.61;nan
23166;BME280;11751;42.700;24.170;2023-09-08T09:55:33;94463.44;;;26.25;nan
23166;BME280;11751;42.700;24.170;2023-09-08T09:57:59;94456.84;;;26.05;nan
23166;BME280;11751;42.700;24.170;2023-09-08T10:00:29;94460.91;;;26.00;nan
23166;BME280;11751;42.700;24.170;2023-09-08T10:02:55;94461.88;;;25.59;nan
23166;BME280;11751;42.700;24.170;2023-09-08T10:05:23;94445.59;;;25.48;nan
23166;BME280;11751;42.700;24.170;2023-09-08T10:07:49;94463.88;;;25.10;nan
23166;BME280;11751;42.700;24.170;2023-09-08T10:10:16;94456.38;;;24.74;nan
23166;BME280;11751;42.700;24.170;2023-09-08T10:12:52;94461.22;;;24.85;nan
23166;BME280;11751;42.700;24.170;2023-09-08T10:15:21;94451.97;;;24.87;nan
23166;BME280;11751;42.700;24.170;2023-09-08T10:17:49;94453.97;;;24.69;nan
23166;BME280;11751;42.700;24.170;2023-09-08T10:20:18;94456.16;;;24.55;nan
23166;BME280;11751;42.700;24.170;2023-09-08T10:22:53;94459.50;;;24.65;nan
23166;BME280;11751;42.700;24.170;2023-09-08T10:25:20;94448.56;;;24.46;nan
23166;BME280;11751;42.700;24.170;2023-09-08T10:27:47;94450.97;;;24.38;nan
23166;BME280;11751;42.700;24.170;2023-09-08T10:30:14;94454.47;;;24.50;nan
23166;BME280;11751;42.700;24.170;2023-09-08T10:32:40;94443.66;;;24.48;nan
23166;BME280;11751;42.700;24.170;2023-09-08T10:35:07;94450.16;;;24.64;nan
23166;BME280;11751;42.700;24.170;2023-09-08T10:37:33;94450.28;;;24.66;nan
23166;BME280;11751;42.700;24.170;2023-09-08T10:40:21;94452.53;;;24.83;nan
23166;BME280;11751;42.700;24.170;2023-09-08T10:42:47;94447.41;;;24.66;nan
23166;BME280;11751;42.700;24.170;2023-09-08T10:45:18;94449.03;;;24.85;nan
23166;BME280;11751;42.700;24.170;2023-09-08T10:50:19;94437.97;;;25.08;nan
23166;BME280;11751;42.700;24.170;2023-09-08T10:52:45;94453.91;;;25.11;nan
23166;BME280;11751;42.700;24.170;2023-09-08T10:55:12;94441.91;;;25.30;nan
23166;BME280;11751;42.700;24.170;2023-09-08T10:57:44;94440.97;;;25.41;nan
23166;BME280;11751;42.700;24.170;2023-09-08T11:00:10;94439.50;;;25.40;nan
23166;BME280;11751;42.700;24.170;2023-09-08T11:02:38;94430.16;;;25.55;nan
23166;BME280;11751;42.700;24.170;2023-09-08T11:05:07;94430.03;;;25.68;nan
23166;BME280;11751;42.700;24.170;2023-09-08T11:07:35;94424.09;;;25.80;nan
23166;BME280;11751;42.700;24.170;2023-09-08T11:10:01;94420.53;;;26.12;nan
23166;BME280;11751;42.700;24.170;2023-09-08T11:12:30;94418.91;;;25.92;nan
23166;BME280;11751;42.700;24.170;2023-09-08T11:14:56;94424.88;;;25.80;nan
23166;BME280;11751;42.700;24.170;2023-09-08T11:17:25;94422.66;;;26.11;nan
23166;BME280;11751;42.700;24.170;2023-09-08T11:19:51;94427.28;;;26.36;nan
23166;BME280;11751;42.700;24.170;2023-09-08T11:22:17;94421.03;;;26.74;nan
23166;BME280;11751;42.700;24.170;2023-09-08T11:24:44;94414.69;;;26.78;nan
23166;BME280;11751;42.700;24.170;2023-09-08T11:27:11;94410.97;;;27.10;nan
23166;BME280;11751;42.700;24.170;2023-09-08T11:29:36;94406.16;;;27.34;nan
23166;BME280;11751;42.700;24.170;2023-09-08T11:32:02;94403.78;;;27.84;nan
23166;BME280;11751;42.700;24.170;2023-09-08T11:34:30;94406.59;;;27.82;nan
23166;BME280;11751;42.700;24.170;2023-09-08T11:36:57;94407.81;;;27.58;nan
23166;BME280;11751;42.700;24.170;2023-09-08T11:39:29;94406.09;;;27.51;nan
23166;BME280;11751;42.700;24.170;2023-09-08T11:41:55;94409.69;;;27.32;nan
23166;BME280;11751;42.700;24.170;2023-09-08T11:44:21;94396.75;;;27.51;nan
23166;BME280;11751;42.700;24.170;2023-09-08T11:46:46;94393.19;;;27.52;nan
23166;BME280;11751;42.700;24.170;2023-09-08T11:49:13;94387.94;;;27.47;nan
23166;BME280;11751;42.700;24.170;2023-09-08T11:51:39;94387.22;;;27.46;nan
23166;BME280;11751;42.700;24.170;2023-09-08T11:54:04;94388.78;;;27.69;nan
23166;BME280;11751;42.700;24.170;2023-09-08T11:56:30;94376.69;;;27.72;nan
23166;BME280;11751;42.700;24.170;2023-09-08T11:58:57;94379.91;;;28.01;nan
23166;BME280;11751;42.700;24.170;2023-09-08T12:01:23;94377.16;;;28.05;nan
23166;BME280;11751;42.700;24.170;2023-09-08T12:03:55;94367.69;;;27.81;nan
23166;BME280;11751;42.700;24.170;2023-09-08T12:06:25;94362.28;;;27.91;nan
23166;BME280;11751;42.700;24.170;2023-09-08T12:08:51;94362.69;;;28.23;nan
23166;BME280;11751;42.700;24.170;2023-09-08T12:11:16;94353.94;;;28.21;nan
23166;BME280;11751;42.700;24.170;2023-09-08T12:13:42;94349.75;;;28.45;nan
23166;BME280;11751;42.700;24.170;2023-09-08T12:16:20;94349.34;;;28.55;nan
23166;BME280;11751;42.700;24.170;2023-09-08T12:18:48;94356.09;;;28.20;nan
23166;BME280;11751;42.700;24.170;2023-09-08T12:21:15;94360.72;;;28.08;nan
23166;BME280;11751;42.700;24.170;2023-09-08T12:23:48;94354.97;;;27.88;nan
23166;BME280;11751;42.700;24.170;2023-09-08T12:26:17;94354.25;;;27.30;nan
23166;BME280;11751;42.700;24.170;2023-09-08T12:28:43;94353.81;;;26.46;nan
23166;BME280;11751;42.700;24.170;2023-09-08T12:31:09;94351.72;;;26.31;nan
23166;BME280;11751;42.700;24.170;2023-09-08T12:33:35;94352.53;;;26.16;nan
23166;BME280;11751;42.700;24.170;2023-09-08T12:36:10;94335.97;;;26.32;nan
23166;BME280;11751;42.700;24.170;2023-09-08T12:38:36;94356.41;;;26.23;nan
23166;BME280;11751;42.700;24.170;2023-09-08T12:41:02;94341.38;;;26.24;nan
23166;BME280;11751;42.700;24.170;2023-09-08T12:43:27;94340.75;;;26.43;nan
23166;BME280;11751;42.700;24.170;2023-09-08T12:45:53;94341.78;;;26.69;nan
23166;BME280;11751;42.700;24.170;2023-09-08T12:48:18;94338.28;;;26.53;nan
23166;BME280;11751;42.700;24.170;2023-09-08T12:50:44;94333.66;;;26.81;nan
23166;BME280;11751;42.700;24.170;2023-09-08T12:53:09;94338.88;;;27.04;nan
23166;BME280;11751;42.700;24.170;2023-09-08T12:55:34;94337.22;;;27.36;nan
23166;BME280;11751;42.700;24.170;2023-09-08T12:58:00;94346.66;;;27.77;nan
23166;BME280;11751;42.700;24.170;2023-09-08T13:00:25;94333.31;;;27.66;nan
23166;BME280;11751;42.700;24.170;2023-09-08T13:02:52;94333.47;;;27.70;nan
23166;BME280;11751;42.700;24.170;2023-09-08T13:05:17;94340.22;;;27.78;nan
23166;BME280;11751;42.700;24.170;2023-09-08T13:07:43;94341.75;;;27.62;nan
23166;BME280;11751;42.700;24.170;2023-09-08T13:10:09;94337.28;;;27.18;nan
23166;BME280;11751;42.700;24.170;2023-09-08T13:12:34;94335.72;;;27.15;nan
23166;BME280;11751;42.700;24.170;2023-09-08T13:15:00;94341.88;;;26.71;nan
23166;BME280;11751;42.700;24.170;2023-09-08T13:17:25;94337.81;;;26.95;nan